Time;durP1;ratioP1;P1;durP2;ratioP2;P2;SDS_P1;SDS_P2;PMS_P1;PMS_P2;Temp;Humidity;BMP_temperature;BMP_pressure;BME280_temperature;BME280_humidity;BME280_pressure;Samples;Min_cycle;Max_cycle;Signal;HPM_P1;HPM_P2
2023/03/05 00:01:32;;;;;;;29.90;9.60;;;;;;;1.09;75.92;100414.27;105625;1254;74606;-58
2023/03/05 00:04:02;;;;;;;22.30;7.60;;;;;;;1.13;75.75;100411.52;105505;1255;83154;-59
2023/03/05 00:06:31;;;;;;;21.20;6.80;;;;;;;1.14;76.14;100409.27;105486;1254;73385;-59
2023/03/05 00:09:00;;;;;;;12.10;4.60;;;;;;;1.14;76.19;100409.63;105522;1256;69115;-59
2023/03/05 00:11:29;;;;;;;8.60;3.20;;;;;;;1.12;75.90;100407.73;105714;1254;69185;-59
2023/03/05 00:13:58;;;;;;;9.20;3.20;;;;;;;1.15;75.99;100406.02;105575;1255;73937;-58
2023/03/05 00:16:28;;;;;;;9.50;3.30;;;;;;;1.17;75.83;100402.06;105539;1254;82619;-59
2023/03/05 00:18:59;;;;;;;10.70;3.50;;;;;;;1.17;75.87;100399.32;105584;1256;73127;-59
2023/03/05 00:21:33;;;;;;;6.90;2.70;;;;;;;1.17;75.64;100393.48;105827;1256;69134;-59
2023/03/05 00:24:04;;;;;;;5.20;1.90;;;;;;;1.16;75.42;100391.73;105503;1256;69183;-59
2023/03/05 00:26:35;;;;;;;4.60;1.70;;;;;;;1.15;75.16;100388.98;105527;1253;74539;-59
2023/03/05 00:29:04;;;;;;;4.50;2.00;;;;;;;1.12;74.99;100386.23;105734;1257;83757;-58
2023/03/05 00:31:34;;;;;;;4.40;1.60;;;;;;;1.12;74.74;100385.88;105586;1253;73171;-59
2023/03/05 00:34:05;;;;;;;5.60;2.10;;;;;;;1.11;74.71;100382.45;105813;1252;69180;-58
2023/03/05 00:36:35;;;;;;;5.50;1.60;;;;;;;1.10;75.07;100380.38;105601;1254;69022;-58
2023/03/05 00:39:03;;;;;;;5.70;2.40;;;;;;;1.08;74.97;100369.36;105695;1257;74974;-59
2023/03/05 00:41:32;;;;;;;5.80;2.10;;;;;;;1.08;74.85;100367.64;105543;1256;83192;-58
2023/03/05 00:44:00;;;;;;;4.80;1.70;;;;;;;1.07;74.50;100364.52;105583;1254;72683;-59
2023/03/05 00:46:29;;;;;;;4.90;1.90;;;;;;;1.06;74.41;100365.75;105584;1252;69125;-58
2023/03/05 00:48:57;;;;;;;6.10;2.00;;;;;;;1.06;74.11;100363.68;105891;1256;69459;-59
2023/03/05 00:51:25;;;;;;;5.30;2.00;;;;;;;1.05;73.78;100357.83;105487;1254;74581;-58
2023/03/05 00:53:54;;;;;;;6.70;1.70;;;;;;;1.03;73.72;100356.45;105477;1254;83896;-59
2023/03/05 00:56:23;;;;;;;6.90;1.90;;;;;;;1.01;73.84;100355.76;105462;1257;72786;-58
2023/03/05 00:58:52;;;;;;;4.70;1.60;;;;;;;0.99;73.99;100350.75;105649;1256;69288;-58
2023/03/05 01:01:20;;;;;;;3.90;1.60;;;;;;;0.98;73.89;100349.55;105574;1253;69183;-58
2023/03/05 01:03:49;;;;;;;2.80;1.30;;;;;;;0.97;73.65;100347.31;105539;1256;74887;-58
2023/03/05 01:06:17;;;;;;;5.50;1.60;;;;;;;0.95;74.13;100344.91;105522;1254;83812;-58
2023/03/05 01:08:45;;;;;;;3.90;1.40;;;;;;;0.92;73.73;100342.15;105498;1254;72752;-59
2023/03/05 01:11:14;;;;;;;2.70;1.20;;;;;;;0.91;74.01;100338.70;105347;1254;69145;-59
2023/03/05 01:13:42;;;;;;;3.70;1.50;;;;;;;0.94;74.22;100335.45;105598;1256;69173;-58
2023/03/05 01:16:10;;;;;;;2.40;1.00;;;;;;;0.94;73.97;100333.71;105568;1254;74892;-59
2023/03/05 01:18:40;;;;;;;2.30;0.70;;;;;;;0.95;73.68;100333.73;105527;1256;83220;-59
2023/03/05 01:21:09;;;;;;;2.30;1.20;;;;;;;0.97;73.41;100332.17;105687;1254;73909;-58
2023/03/05 01:23:37;;;;;;;4.00;0.90;;;;;;;0.97;73.15;100325.64;105555;1256;69171;-58
2023/03/05 01:26:07;;;;;;;3.10;1.00;;;;;;;0.98;73.18;100322.02;105499;1253;69222;-58
2023/03/05 01:28:37;;;;;;;4.20;1.00;;;;;;;0.96;72.88;100316.52;105643;1258;74290;-58
2023/03/05 01:31:07;;;;;;;4.30;1.40;;;;;;;0.95;72.78;100309.47;105568;1254;82590;-58
2023/03/05 01:33:36;;;;;;;4.10;1.60;;;;;;;0.94;72.74;100303.27;105383;1254;72790;-59
2023/03/05 01:36:12;;;;;;;5.80;2.30;;;;;;;0.91;72.84;100300.17;105565;1254;69170;-59
2023/03/05 01:38:42;;;;;;;6.10;2.20;;;;;;;0.86;72.69;100296.21;105507;1254;69135;-59
2023/03/05 01:41:11;;;;;;;5.50;2.00;;;;;;;0.83;72.81;100293.98;105558;1254;75027;-58
2023/03/05 01:43:40;;;;;;;5.70;2.20;;;;;;;0.79;72.79;100290.70;105712;1257;83397;-58
2023/03/05 01:46:28;;;;;;;5.70;2.20;;;;;;;0.76;72.78;100287.09;105469;1257;73890;-59
2023/03/05 01:49:00;;;;;;;7.20;2.20;;;;;;;0.72;72.55;100290.36;105462;1254;69174;-58
2023/03/05 01:51:50;;;;;;;5.20;2.30;;;;;;;0.68;72.69;100290.34;105456;1257;69150;-58
2023/03/05 01:54:20;;;;;;;5.60;2.10;;;;;;;0.62;72.85;100291.02;105671;1256;74802;-58
2023/03/05 01:56:49;;;;;;;7.40;2.60;;;;;;;0.58;72.85;100288.63;105394;1259;83673;-58
2023/03/05 01:59:18;;;;;;;5.20;1.90;;;;;;;0.54;73.19;100288.08;105562;1254;72802;-59
2023/03/05 02:01:50;;;;;;;4.90;2.30;;;;;;;0.50;73.09;100283.43;105708;1257;69641;-58
2023/03/05 02:04:20;;;;;;;7.50;2.00;;;;;;;0.44;73.11;100277.75;105567;1254;68997;-59
2023/03/05 02:06:49;;;;;;;7.70;2.20;;;;;;;0.37;73.22;100276.01;105561;1256;74883;-58
2023/03/05 02:09:22;;;;;;;6.90;2.00;;;;;;;0.32;73.31;100277.54;105832;1256;83092;-58
2023/03/05 02:11:50;;;;;;;6.30;2.00;;;;;;;0.28;73.36;100276.49;105521;1253;72732;-58
2023/03/05 02:14:19;;;;;;;6.70;2.50;;;;;;;0.26;73.45;100273.23;105715;1257;69199;-59
2023/03/05 02:16:48;;;;;;;3.30;1.50;;;;;;;0.26;73.53;100271.52;105526;1254;69065;-58
2023/03/05 02:19:16;;;;;;;6.80;2.00;;;;;;;0.25;73.77;100264.46;105746;1254;74862;-58
2023/03/05 02:21:47;;;;;;;7.00;1.90;;;;;;;0.25;73.82;100260.67;105467;1256;83139;-58
2023/03/05 02:24:18;;;;;;;2.60;1.50;;;;;;;0.25;73.91;100257.95;105641;1254;73855;-58
2023/03/05 02:26:46;;;;;;;6.70;1.70;;;;;;;0.23;74.24;100256.73;105419;1257;69221;-58
2023/03/05 02:29:18;;;;;;;4.80;1.80;;;;;;;0.23;74.49;100250.20;105514;1256;69218;-58
2023/03/05 02:31:46;;;;;;;4.00;2.00;;;;;;;0.23;74.55;100244.01;105478;1258;73981;-58
2023/03/05 02:34:14;;;;;;;7.70;2.00;;;;;;;0.20;74.65;100242.30;105450;1256;83277;-58
2023/03/05 02:36:43;;;;;;;4.80;2.20;;;;;;;0.18;74.80;100236.77;105550;1254;73735;-58
2023/03/05 02:39:11;;;;;;;6.60;1.90;;;;;;;0.17;74.89;100234.38;105535;1256;69236;-58
2023/03/05 02:41:40;;;;;;;6.70;2.00;;;;;;;0.14;74.95;100232.48;105637;1256;69192;-58
2023/03/05 02:44:08;;;;;;;4.60;1.70;;;;;;;0.13;75.08;100225.95;105543;1254;74742;-58
2023/03/05 02:46:36;;;;;;;5.70;1.70;;;;;;;0.11;75.17;100225.78;105535;1254;82557;-58
2023/03/05 02:49:05;;;;;;;6.70;1.80;;;;;;;0.13;75.17;100221.13;105456;1256;72744;-58
2023/03/05 02:51:33;;;;;;;2.90;1.60;;;;;;;0.14;75.31;100215.45;105381;1254;69154;-58
2023/03/05 02:54:01;;;;;;;5.60;2.00;;;;;;;0.15;75.42;100219.25;105432;1256;69837;-58
2023/03/05 02:56:30;;;;;;;5.40;1.60;;;;;;;0.16;75.45;100209.27;105589;1254;74596;-58
2023/03/05 02:59:00;;;;;;;7.30;1.70;;;;;;;0.19;75.49;100209.80;105540;1254;83424;-58
2023/03/05 03:01:29;;;;;;;4.10;1.70;;;;;;;0.21;75.57;100206.20;105785;1254;73454;-58
2023/03/05 03:03:58;;;;;;;5.50;2.40;;;;;;;0.22;75.93;100204.99;105535;1256;69464;-58
2023/03/05 03:06:26;;;;;;;5.20;1.80;;;;;;;0.23;76.01;100203.13;105467;1252;69272;-58
2023/03/05 03:08:54;;;;;;;7.30;2.20;;;;;;;0.24;75.94;100200.20;105539;1254;74863;-58
2023/03/05 03:11:22;;;;;;;4.90;1.60;;;;;;;0.23;75.95;100199.67;105503;1254;83396;-58
2023/03/05 03:13:50;;;;;;;4.00;1.70;;;;;;;0.23;76.07;100200.36;105465;1254;73919;-58
2023/03/05 03:16:18;;;;;;;7.20;1.80;;;;;;;0.24;76.21;100196.08;105465;1254;69224;-58
2023/03/05 03:18:47;;;;;;;3.40;1.50;;;;;;;0.23;76.11;100197.97;105453;1254;69027;-58
2023/03/05 03:21:18;;;;;;;7.20;2.00;;;;;;;0.22;76.24;100195.02;105631;1254;75149;-58
2023/03/05 03:23:46;;;;;;;4.80;1.50;;;;;;;0.21;76.11;100194.16;105520;1254;82762;-58
2023/03/05 03:26:15;;;;;;;4.50;1.80;;;;;;;0.23;76.15;100190.73;105464;1256;72350;-58
2023/03/05 03:28:44;;;;;;;3.90;1.50;;;;;;;0.24;76.15;100188.69;105498;1256;69119;-58
2023/03/05 03:31:12;;;;;;;4.60;1.70;;;;;;;0.25;76.09;100183.36;105515;1254;69174;-58
2023/03/05 03:33:40;;;;;;;3.60;1.20;;;;;;;0.28;76.17;100179.75;105469;1254;74937;-58
2023/03/05 03:36:09;;;;;;;4.10;1.60;;;;;;;0.30;76.22;100173.73;105630;1254;83405;-58
2023/03/05 03:38:37;;;;;;;4.20;1.40;;;;;;;0.33;76.25;100170.13;105558;1254;73894;-58
2023/03/05 03:41:06;;;;;;;3.40;1.10;;;;;;;0.33;76.38;100166.68;105415;1256;69145;-58
2023/03/05 03:43:35;;;;;;;4.20;1.40;;;;;;;0.34;76.47;100162.73;105540;1254;69196;-58
2023/03/05 03:46:05;;;;;;;2.40;1.10;;;;;;;0.34;76.45;100156.39;105589;1255;74907;-58
2023/03/05 03:48:34;;;;;;;4.90;1.50;;;;;;;0.33;76.64;100152.59;105512;1256;83648;-58
2023/03/05 03:51:05;;;;;;;4.20;1.40;;;;;;;0.32;76.51;100148.98;105449;1256;72750;-58
2023/03/05 03:53:33;;;;;;;3.40;1.20;;;;;;;0.31;76.53;100149.69;105509;1253;69516;-58
2023/03/05 03:56:02;;;;;;;4.70;1.50;;;;;;;0.30;76.45;100148.64;105533;1252;69552;-58
2023/03/05 03:58:31;;;;;;;3.00;1.20;;;;;;;0.29;76.52;100141.60;105548;1254;74706;-58
2023/03/05 04:00:59;;;;;;;6.10;1.20;;;;;;;0.29;76.40;100138.69;105538;1254;83523;-59
2023/03/05 04:03:27;;;;;;;4.60;1.40;;;;;;;0.33;76.41;100133.36;105475;1256;72825;-59
2023/03/05 04:05:56;;;;;;;5.70;1.20;;;;;;;0.36;76.26;100131.46;105455;1254;69273;-58
2023/03/05 04:08:24;;;;;;;4.00;1.20;;;;;;;0.37;76.37;100123.90;105450;1254;69520;-58
2023/03/05 04:10:52;;;;;;;4.10;1.00;;;;;;;0.41;76.22;100120.45;105584;1255;75152;-59
2023/03/05 04:13:20;;;;;;;2.40;0.90;;;;;;;0.41;76.44;100120.46;105449;1254;82350;-58
2023/03/05 04:15:49;;;;;;;1.80;0.70;;;;;;;0.41;76.46;100115.48;105500;1256;73393;-59
2023/03/05 04:18:17;;;;;;;3.30;1.00;;;;;;;0.41;76.46;100116.33;105535;1254;69183;-58
2023/03/05 04:20:45;;;;;;;2.30;0.90;;;;;;;0.40;76.42;100115.98;105504;1254;69202;-59
2023/03/05 04:23:14;;;;;;;4.80;1.00;;;;;;;0.38;76.49;100113.94;105548;1256;75112;-59
2023/03/05 04:25:42;;;;;;;2.60;0.80;;;;;;;0.36;76.64;100103.78;105485;1253;83555;-59
2023/03/05 04:28:11;;;;;;;3.10;0.80;;;;;;;0.34;76.70;100103.45;105544;1256;73418;-59
2023/03/05 04:30:39;;;;;;;3.70;1.10;;;;;;;0.34;76.78;100099.85;105669;1254;69186;-58
2023/03/05 04:33:07;;;;;;;1.80;0.90;;;;;;;0.34;76.71;100095.55;105489;1254;69080;-59
2023/03/05 04:35:36;;;;;;;2.40;0.90;;;;;;;0.35;77.11;100092.79;105571;1256;74917;-59
2023/03/05 04:38:04;;;;;;;4.60;1.00;;;;;;;0.35;77.22;100085.05;105553;1256;83423;-59
2023/03/05 04:40:33;;;;;;;2.70;0.80;;;;;;;0.37;77.41;100081.11;105693;1256;73701;-59
2023/03/05 04:43:02;;;;;;;3.50;1.30;;;;;;;0.36;77.56;100079.05;105545;1254;69007;-59
2023/03/05 04:45:31;;;;;;;6.00;1.30;;;;;;;0.36;77.61;100075.61;105526;1254;69177;-59
2023/03/05 04:47:59;;;;;;;4.20;1.30;;;;;;;0.34;77.80;100074.39;105952;1256;74111;-58
2023/03/05 04:50:27;;;;;;;4.10;1.10;;;;;;;0.32;77.98;100071.64;105560;1254;82479;-59
2023/03/05 04:52:55;;;;;;;5.90;1.10;;;;;;;0.29;78.03;100070.63;105476;1255;73180;-59
2023/03/05 04:55:24;;;;;;;3.60;1.10;;;;;;;0.24;78.15;100067.88;105543;1256;69195;-59
2023/03/05 04:57:52;;;;;;;3.80;1.00;;;;;;;0.18;78.47;100063.59;105442;1255;69521;-59
2023/03/05 05:00:21;;;;;;;9.30;1.10;;;;;;;0.15;78.78;100059.29;105510;1257;75428;-60
2023/03/05 05:02:51;;;;;;;4.00;1.00;;;;;;;0.14;79.12;100054.46;105489;1256;83506;-60
2023/03/05 05:05:23;;;;;;;2.20;1.00;;;;;;;0.11;79.30;100050.88;105514;1254;72787;-60
2023/03/05 05:07:55;;;;;;;6.80;1.40;;;;;;;0.08;79.56;100047.95;105606;1254;69060;-60
2023/03/05 05:10:25;;;;;;;5.90;2.20;;;;;;;0.05;79.71;100046.75;105462;1256;69059;-59
2023/03/05 05:12:53;;;;;;;5.10;2.20;;;;;;;0.04;80.04;100045.55;105500;1256;73078;-60
2023/03/05 05:15:21;;;;;;;5.10;2.40;;;;;;;0.06;80.18;100045.04;105458;1254;83383;-60
2023/03/05 05:17:49;;;;;;;3.90;1.80;;;;;;;0.07;80.40;100044.69;105495;1254;72794;-60
2023/03/05 05:20:18;;;;;;;5.50;2.20;;;;;;;0.04;80.47;100047.09;105463;1257;69102;-59
2023/03/05 05:22:47;;;;;;;7.30;2.00;;;;;;;0.02;80.66;100046.75;105466;1255;69192;-59
2023/03/05 05:25:15;;;;;;;5.00;1.90;;;;;;;0.00;81.00;100043.66;105485;1256;75686;-59
2023/03/05 05:27:43;;;;;;;6.80;2.40;;;;;;;-0.05;81.08;100045.37;105721;1254;82243;-59
2023/03/05 05:30:12;;;;;;;5.90;2.20;;;;;;;-0.09;81.10;100044.52;105430;1254;73542;-59
2023/03/05 05:32:40;;;;;;;7.40;3.00;;;;;;;-0.10;81.49;100044.17;105536;1257;69128;-60
2023/03/05 05:35:09;;;;;;;10.30;2.80;;;;;;;-0.10;81.59;100041.94;105443;1254;70585;-60
2023/03/05 05:37:37;;;;;;;10.70;2.40;;;;;;;-0.09;81.95;100046.23;105492;1256;74989;-60
2023/03/05 05:40:07;;;;;;;8.10;2.30;;;;;;;-0.07;82.23;100039.36;105495;1256;83391;-60
2023/03/05 05:42:35;;;;;;;12.80;2.30;;;;;;;0.00;82.56;100045.37;105574;1257;72888;-58
2023/03/05 05:45:04;;;;;;;7.70;2.10;;;;;;;0.06;82.86;100042.45;105443;1256;69186;-60
2023/03/05 05:47:32;;;;;;;11.30;2.10;;;;;;;0.11;82.99;100046.91;105395;1254;70130;-60
2023/03/05 05:50:01;;;;;;;7.00;1.80;;;;;;;0.18;83.23;100049.49;105428;1256;73999;-60
2023/03/05 05:52:29;;;;;;;9.00;2.30;;;;;;;0.25;83.33;100049.14;105432;1255;83376;-60
2023/03/05 05:54:57;;;;;;;9.70;2.10;;;;;;;0.29;83.79;100051.38;105447;1254;73760;-60
2023/03/05 05:57:25;;;;;;;11.50;2.90;;;;;;;0.34;83.95;100048.27;105457;1254;69041;-61
2023/03/05 05:59:53;;;;;;;14.60;3.30;;;;;;;0.38;84.06;100046.55;105435;1254;69125;-60
2023/03/05 06:02:22;;;;;;;11.00;2.80;;;;;;;0.43;83.91;100045.17;105557;1254;74803;-60
2023/03/05 06:04:50;;;;;;;14.00;2.70;;;;;;;0.51;83.98;100043.10;105547;1256;83073;-60
2023/03/05 06:07:18;;;;;;;12.80;3.10;;;;;;;0.55;83.91;100041.71;105412;1256;73775;-60
2023/03/05 06:09:47;;;;;;;14.10;2.60;;;;;;;0.60;84.01;100045.31;105390;1256;69239;-60
2023/03/05 06:12:15;;;;;;;11.70;2.60;;;;;;;0.66;83.92;100038.23;105534;1257;69119;-60
2023/03/05 06:14:44;;;;;;;11.70;2.50;;;;;;;0.73;83.94;100038.22;105785;1256;73871;-60
2023/03/05 06:17:12;;;;;;;11.40;3.20;;;;;;;0.77;84.00;100036.85;105502;1256;83134;-60
2023/03/05 06:19:54;;;;;;;11.60;3.20;;;;;;;0.80;83.99;100037.35;105543;1257;73725;-60
2023/03/05 06:22:22;;;;;;;14.50;2.90;;;;;;;0.82;84.09;100039.41;105485;1256;69166;-61
2023/03/05 06:24:50;;;;;;;16.50;3.50;;;;;;;0.84;83.94;100038.54;105498;1256;69110;-59
2023/03/05 06:27:18;;;;;;;10.10;2.80;;;;;;;0.86;83.88;100038.89;105572;1256;75289;-59
2023/03/05 06:29:47;;;;;;;15.30;2.70;;;;;;;0.91;83.36;100038.85;105845;1254;83147;-59
2023/03/05 06:32:15;;;;;;;11.50;2.70;;;;;;;0.94;83.41;100037.98;105574;1265;73661;-59
2023/03/05 06:34:43;;;;;;;8.70;2.40;;;;;;;0.96;83.56;100039.70;105567;1256;69144;-59
2023/03/05 06:37:11;;;;;;;9.90;2.30;;;;;;;0.99;83.36;100042.27;105618;1257;69074;-59
2023/03/05 06:39:39;;;;;;;15.20;3.00;;;;;;;1.03;83.52;100036.58;105592;1256;73839;-59
2023/03/05 06:42:08;;;;;;;11.40;3.70;;;;;;;1.05;83.25;100036.23;105749;1257;83095;-60
2023/03/05 06:44:39;;;;;;;12.50;3.30;;;;;;;1.06;83.07;100042.25;106034;1255;73970;-59
2023/03/05 06:47:09;;;;;;;15.50;4.20;;;;;;;1.06;83.05;100044.48;105712;1257;69406;-59
2023/03/05 06:49:38;;;;;;;14.50;3.90;;;;;;;1.07;82.79;100042.23;105812;1256;69137;-59
2023/03/05 06:52:08;;;;;;;9.70;2.90;;;;;;;1.09;82.61;100046.36;105744;1256;73478;-60
2023/03/05 06:54:37;;;;;;;;;;;;;;;1.12;82.41;100048.59;105829;1255;82506;-60
2023/03/05 06:57:05;;;;;;;14.20;2.30;;;;;;;1.12;82.21;100049.80;105540;1256;72720;-60
2023/03/05 06:59:33;;;;;;;11.20;3.30;;;;;;;1.13;81.93;100044.79;105431;1254;69157;-60
2023/03/05 07:02:01;;;;;;;14.80;2.90;;;;;;;1.14;81.84;100045.30;105534;1257;69071;-61
2023/03/05 07:04:30;;;;;;;7.00;2.00;;;;;;;1.14;81.65;100046.17;105714;1256;74652;-61
2023/03/05 07:06:59;;;;;;;8.70;2.00;;;;;;;1.15;81.27;100045.14;106430;1258;84304;-61
2023/03/05 07:09:27;;;;;;;8.80;2.50;;;;;;;1.15;81.22;100047.89;105578;1256;72550;-60
2023/03/05 07:11:56;;;;;;;10.30;3.80;;;;;;;1.17;80.90;100048.73;105510;1255;69166;-60
2023/03/05 07:14:24;;;;;;;10.10;2.60;;;;;;;1.18;80.66;100053.55;105683;1252;69065;-60
2023/03/05 07:16:52;;;;;;;12.60;4.20;;;;;;;1.20;80.37;100048.04;105942;1256;74521;-60
2023/03/05 07:19:21;;;;;;;9.00;3.10;;;;;;;1.21;80.09;100051.64;105653;1256;83264;-60
2023/03/05 07:21:49;;;;;;;9.10;2.20;;;;;;;1.22;79.77;100051.29;105546;1256;73659;-60
2023/03/05 07:24:17;;;;;;;8.20;2.80;;;;;;;1.23;79.81;100051.82;105557;1257;69068;-59
2023/03/05 07:26:45;;;;;;;6.00;2.20;;;;;;;1.24;79.87;100047.67;105610;1251;69094;-58
2023/03/05 07:29:15;;;;;;;7.30;2.40;;;;;;;1.25;79.49;100049.40;105693;1257;72913;-59
2023/03/05 07:31:43;;;;;;;8.40;2.00;;;;;;;1.25;79.25;100048.71;105572;1254;83494;-60
2023/03/05 07:34:12;;;;;;;5.80;1.60;;;;;;;1.24;78.89;100052.30;105934;1253;73741;-60
2023/03/05 07:36:41;;;;;;;9.60;1.60;;;;;;;1.24;78.70;100044.56;105737;1255;69526;-59
2023/03/05 07:39:11;;;;;;;5.20;1.50;;;;;;;1.27;78.59;100047.83;105678;1256;69164;-60
2023/03/05 07:41:39;;;;;;;10.00;3.00;;;;;;;1.27;78.36;100046.44;105871;1256;75390;-59
2023/03/05 07:44:08;;;;;;;13.10;2.30;;;;;;;1.26;78.27;100045.25;105658;1257;83374;-59
2023/03/05 07:46:37;;;;;;;4.80;2.10;;;;;;;1.25;78.18;100046.64;105805;1257;73923;-59
2023/03/05 07:49:05;;;;;;;6.20;1.40;;;;;;;1.27;77.82;100041.63;105667;1257;69095;-60
2023/03/05 07:51:33;;;;;;;5.30;1.50;;;;;;;1.31;78.01;100045.39;105796;1256;69119;-60
2023/03/05 07:54:02;;;;;;;4.30;1.10;;;;;;;1.32;77.66;100046.25;105604;1256;74797;-61
2023/03/05 07:56:34;;;;;;;7.00;1.30;;;;;;;1.29;77.61;100046.27;106056;1257;83902;-61
2023/03/05 07:59:07;;;;;;;9.50;2.10;;;;;;;1.27;77.88;100046.11;105693;1257;74119;-60
2023/03/05 08:01:36;;;;;;;7.20;1.70;;;;;;;1.25;77.72;100041.13;105663;1257;69209;-60
2023/03/05 08:04:06;;;;;;;5.70;1.40;;;;;;;1.24;77.73;100040.95;105775;1257;69153;-60
2023/03/05 08:06:34;;;;;;;7.10;1.60;;;;;;;1.20;77.59;100038.73;105781;1255;74612;-59
2023/03/05 08:09:02;;;;;;;6.70;1.20;;;;;;;1.15;77.77;100037.05;105603;1257;83191;-60
2023/03/05 08:11:31;;;;;;;9.20;1.50;;;;;;;1.12;77.63;100035.68;105669;1253;73780;-60
2023/03/05 08:13:59;;;;;;;8.40;1.60;;;;;;;1.08;77.64;100034.66;105578;1254;69132;-60
2023/03/05 08:16:28;;;;;;;6.60;1.40;;;;;;;1.08;77.28;100038.45;105701;1257;69167;-62
2023/03/05 08:18:57;;;;;;;5.10;1.80;;;;;;;1.09;77.59;100038.78;105784;1256;73009;-61
2023/03/05 08:21:32;;;;;;;4.30;1.20;;;;;;;1.11;77.66;100039.30;105753;1254;83632;-60
2023/03/05 08:24:03;;;;;;;6.20;1.50;;;;;;;1.12;77.93;100042.22;105759;1256;73525;-60
2023/03/05 08:26:33;;;;;;;7.80;1.70;;;;;;;1.14;77.87;100044.95;105757;1256;69066;-60
2023/03/05 08:29:02;;;;;;;8.10;2.10;;;;;;;1.12;77.82;100042.05;105686;1251;69206;-60
2023/03/05 08:31:30;;;;;;;6.40;1.90;;;;;;;1.11;78.02;100040.16;106087;1255;74012;-60
2023/03/05 08:34:00;;;;;;;6.10;2.00;;;;;;;1.14;78.02;100043.06;106349;1256;81401;-61
2023/03/05 08:36:29;;;;;;;9.70;2.40;;;;;;;1.13;77.91;100038.59;105763;1257;73871;-61
2023/03/05 08:38:58;;;;;;;5.70;2.30;;;;;;;1.11;78.02;100043.09;105894;1252;69050;-60
2023/03/05 08:41:27;;;;;;;7.60;2.20;;;;;;;1.04;77.98;100036.23;105472;1252;69125;-60
2023/03/05 08:43:55;;;;;;;8.30;2.10;;;;;;;0.98;78.24;100039.35;105618;1256;148376;-60
2023/03/05 08:46:23;;;;;;;4.30;2.30;;;;;;;0.95;78.65;100032.99;105673;1255;83373;-60
2023/03/05 08:48:52;;;;;;;7.20;2.10;;;;;;;0.95;78.95;100034.03;105946;1257;72684;-60
2023/03/05 08:51:24;;;;;;;7.50;2.40;;;;;;;0.94;78.90;100034.89;105885;1255;69098;-61
2023/03/05 08:53:54;;;;;;;6.10;2.30;;;;;;;0.93;79.09;100039.36;105675;1257;69124;-60
2023/03/05 08:56:24;;;;;;;8.40;2.30;;;;;;;0.89;79.27;100037.31;105592;1257;73747;-60
2023/03/05 08:58:52;;;;;;;5.50;2.20;;;;;;;0.87;79.49;100026.99;105678;1260;82557;-61
2023/03/05 09:01:21;;;;;;;8.60;2.10;;;;;;;0.93;79.69;100034.55;105584;1254;72583;-62
2023/03/05 09:03:50;;;;;;;2.60;1.30;;;;;;;0.97;79.95;100030.07;105678;1254;69223;-62
2023/03/05 09:06:18;;;;;;;5.90;1.60;;;;;;;1.04;80.00;100031.07;105563;1252;69143;-62
2023/03/05 09:08:46;;;;;;;3.60;1.80;;;;;;;1.11;80.29;100029.15;105637;1256;73865;-64
2023/03/05 09:11:14;;;;;;;5.40;1.70;;;;;;;1.20;80.19;100031.86;105556;1257;83272;-64
2023/03/05 09:13:43;;;;;;;7.50;2.20;;;;;;;1.28;80.18;100022.86;105773;1255;73149;-67
2023/03/05 09:16:14;;;;;;;5.80;2.20;;;;;;;1.40;80.25;100021.08;105562;1254;69180;-67
2023/03/05 09:18:43;;;;;;;7.50;2.00;;;;;;;1.52;80.29;100020.83;106015;1256;69291;-60
2023/03/05 09:21:14;;;;;;;6.30;1.90;;;;;;;1.64;80.21;100019.20;105584;1257;74923;-61
2023/03/05 09:23:43;;;;;;;5.30;1.90;;;;;;;1.76;79.96;100015.84;105930;1255;83195;-59
2023/03/05 09:26:14;;;;;;;9.60;1.70;;;;;;;1.86;79.88;100022.33;105697;1257;72895;-60
2023/03/05 09:28:42;;;;;;;4.80;1.70;;;;;;;1.88;79.32;100022.13;106212;1252;69172;-62
2023/03/05 09:31:11;;;;;;;10.10;1.90;;;;;;;1.85;79.06;100016.29;105595;1257;69394;-61
2023/03/05 09:33:40;;;;;;;4.60;1.60;;;;;;;1.86;79.37;100015.95;105953;1251;73885;-61
2023/03/05 09:36:18;;;;;;;10.00;2.20;;;;;;;1.86;79.18;100020.43;105800;1256;83487;-60
2023/03/05 09:38:47;;;;;;;4.90;1.80;;;;;;;1.90;79.18;100012.98;106184;1251;73943;-60
2023/03/05 09:41:33;;;;;;;7.20;1.90;;;;;;;1.98;79.15;100009.13;106016;1255;69125;-60
2023/03/05 09:44:17;;;;;;;6.10;1.90;;;;;;;2.03;78.91;99999.61;105912;1253;69067;-60
2023/03/05 09:46:53;;;;;;;6.30;1.90;;;;;;;2.10;78.57;99999.71;105803;1256;74970;-60
2023/03/05 09:49:43;;;;;;;7.10;2.10;;;;;;;2.08;78.03;100002.50;106340;1256;83499;-60
2023/03/05 09:52:19;;;;;;;6.00;1.80;;;;;;;2.12;77.99;100000.39;105936;1254;72027;-61
2023/03/05 09:54:57;;;;;;;5.40;1.80;;;;;;;2.17;78.23;99996.73;105570;1257;69180;-60
2023/03/05 09:57:35;;;;;;;6.80;1.40;;;;;;;2.18;77.96;99993.78;105463;1255;69193;-60
2023/03/05 10:00:33;;;;;;;6.90;2.00;;;;;;;2.21;77.87;99993.76;105626;1255;75110;-60
2023/03/05 10:03:05;;;;;;;5.60;1.80;;;;;;;2.29;77.72;99991.96;105599;1256;82394;-59
2023/03/05 10:05:58;;;;;;;8.40;2.70;;;;;;;2.32;77.24;99993.82;105737;1256;73903;-60
2023/03/05 10:08:32;;;;;;;6.20;1.60;;;;;;;2.35;76.91;99989.66;105709;1257;70065;-59
2023/03/05 10:11:02;;;;;;;5.70;1.60;;;;;;;2.32;76.34;99983.13;105871;1254;69179;-60
2023/03/05 10:13:38;;;;;;;5.80;1.30;;;;;;;2.30;75.82;99984.88;105602;1257;74444;-60
2023/03/05 10:16:21;;;;;;;6.00;1.50;;;;;;;2.30;75.76;99980.74;105570;1254;82080;-60
2023/03/05 10:19:06;;;;;;;8.70;2.20;;;;;;;2.32;75.56;99978.30;105602;1257;71605;-60
2023/03/05 10:22:01;;;;;;;6.20;1.90;;;;;;;2.38;75.34;99975.32;105596;1257;69179;-60
2023/03/05 10:24:30;;;;;;;10.60;4.00;;;;;;;2.43;75.48;99978.02;105599;1254;69067;-59
2023/03/05 10:27:13;;;;;;;7.20;2.50;;;;;;;2.40;75.06;99970.46;105606;1256;75101;-60
2023/03/05 10:29:56;;;;;;;9.50;2.50;;;;;;;2.35;74.91;99975.68;105712;1256;83376;-60
2023/03/05 10:33:02;;;;;;;11.90;2.50;;;;;;;2.30;74.80;99974.37;105684;1254;73812;-60
2023/03/05 10:35:56;;;;;;;8.80;1.80;;;;;;;2.26;74.90;99970.45;106006;1252;69063;-60
2023/03/05 10:38:58;;;;;;;6.90;1.70;;;;;;;2.37;75.52;99966.71;105892;1263;69185;-60
2023/03/05 10:41:39;;;;;;;6.10;2.10;;;;;;;2.57;75.71;99961.66;105602;1258;75021;-60
2023/03/05 10:44:14;;;;;;;14.60;4.20;;;;;;;2.89;76.31;99957.64;105566;1254;83480;-60
2023/03/05 10:46:43;;;;;;;6.00;1.40;;;;;;;3.55;76.58;99951.52;105561;1256;71992;-60
2023/03/05 10:49:28;;;;;;;9.00;4.30;;;;;;;4.02;76.14;99949.20;105732;1256;69137;-60
2023/03/05 10:52:04;;;;;;;6.30;2.50;;;;;;;4.15;75.36;99943.45;105657;1255;70034;-60
2023/03/05 10:54:34;;;;;;;14.80;5.20;;;;;;;4.11;74.37;99936.94;106049;1253;75097;-60
2023/03/05 10:57:04;;;;;;;15.80;6.10;;;;;;;3.99;74.08;99932.13;105799;1255;82882;-59
2023/03/05 10:59:32;;;;;;;20.40;5.60;;;;;;;3.86;73.43;99928.58;105576;1254;73741;-60
2023/03/05 11:02:07;;;;;;;113.50;33.10;;;;;;;3.71;73.38;99933.31;105617;1254;69073;-60
2023/03/05 11:04:38;;;;;;;94.60;31.20;;;;;;;3.55;73.20;99932.53;105932;1256;69188;-60
2023/03/05 11:07:15;;;;;;;20.10;7.40;;;;;;;3.39;73.06;99934.52;105629;1256;73941;-60
2023/03/05 11:10:02;;;;;;;8.20;2.70;;;;;;;3.20;73.18;99934.96;105570;1254;82848;-60
2023/03/05 11:12:33;;;;;;;21.80;8.30;;;;;;;2.98;73.07;99941.31;105959;1256;72433;-60
2023/03/05 11:15:07;;;;;;;;;;;;;;;2.72;73.17;99939.91;105773;1254;69141;-61
2023/03/05 11:17:46;;;;;;;9.70;3.70;;;;;;;2.47;73.54;99949.88;105719;1257;69119;-61
2023/03/05 11:20:27;;;;;;;7.10;2.70;;;;;;;2.23;73.87;99941.16;105888;1257;73924;-61
2023/03/05 11:23:14;;;;;;;10.60;4.00;;;;;;;2.16;73.90;99938.14;105621;1255;83251;-62
2023/03/05 11:26:12;;;;;;;7.60;3.20;;;;;;;2.19;74.59;99928.96;105700;1256;71774;-62
2023/03/05 11:28:56;;;;;;;10.30;4.30;;;;;;;2.29;75.40;99929.37;105628;1256;69640;-63
2023/03/05 11:31:30;;;;;;;9.50;4.10;;;;;;;2.41;75.74;99928.55;105675;1254;69093;-64
2023/03/05 11:34:08;;;;;;;10.10;3.80;;;;;;;2.47;75.76;99925.38;105836;1251;74045;-64
2023/03/05 11:36:39;;;;;;;6.20;3.00;;;;;;;2.50;75.72;99923.80;105622;1251;82623;-64
2023/03/05 11:39:07;;;;;;;;;;;;;;;2.50;75.85;99923.45;105891;1251;73690;-65
2023/03/05 11:41:39;;;;;;;6.50;2.50;;;;;;;2.55;75.82;99925.80;105805;1257;69227;-65